Time;durP1;ratioP1;P1;durP2;ratioP2;P2;SDS_P1;SDS_P2;PMS_P1;PMS_P2;Temp;Humidity;BMP_temperature;BMP_pressure;BME280_temperature;BME280_humidity;BME280_pressure;Samples;Min_cycle;Max_cycle;Signal;HPM_P1;HPM_P2
2024/03/12 00:00:59;;;;;;;0.30;0.20;;;;;;;7.16;95.45;99720.59;5017281;28;20491;-51
2024/03/12 00:03:29;;;;;;;0.30;0.17;;;;;;;7.31;94.55;99715.81;5024349;28;20460;-51
2024/03/12 00:05:59;;;;;;;0.30;0.20;;;;;;;7.43;94.96;99719.94;5020039;28;20520;-51
2024/03/12 00:08:29;;;;;;;0.30;0.20;;;;;;;7.46;94.29;99718.97;5028581;28;20444;-51
2024/03/12 00:10:56;;;;;;;0.30;0.20;;;;;;;7.34;94.95;99726.31;5030951;28;21038;-52
2024/03/12 00:13:23;;;;;;;0.30;0.20;;;;;;;7.47;94.79;99726.88;5023502;28;20483;-51
2024/03/12 00:15:50;;;;;;;0.30;0.20;;;;;;;7.53;95.04;99737.28;5029295;28;20457;-52
2024/03/12 00:18:17;;;;;;;0.30;0.20;;;;;;;7.54;95.89;99733.75;5031510;28;20455;-51
2024/03/12 00:20:45;;;;;;;0.30;0.20;;;;;;;7.78;95.00;99747.25;5027118;28;20478;-51
2024/03/12 00:23:12;;;;;;;0.30;0.20;;;;;;;7.89;94.66;99738.13;5031412;28;20494;-51
2024/03/12 00:25:39;;;;;;;0.30;0.20;;;;;;;7.90;94.33;99745.16;5025419;28;20456;-51
2024/03/12 00:28:08;;;;;;;0.30;0.20;;;;;;;7.74;95.91;99751.75;5030223;28;21123;-50
2024/03/12 00:30:35;;;;;;;0.30;0.20;;;;;;;7.80;95.71;99746.28;5031279;28;20529;-51
2024/03/12 00:33:01;;;;;;;0.30;0.20;;;;;;;7.73;96.12;99747.38;5030997;28;20483;-51
2024/03/12 00:35:28;;;;;;;0.30;0.20;;;;;;;7.69;96.20;99751.88;5031277;28;20933;-51
2024/03/12 00:37:56;;;;;;;0.30;0.20;;;;;;;7.96;96.07;99750.28;5031454;28;20539;-50
2024/03/12 00:40:33;;;;;;;0.30;0.20;;;;;;;8.03;95.02;99765.09;5024564;28;20905;-51
2024/03/12 00:43:00;;;;;;;0.30;0.20;;;;;;;8.05;95.71;99754.44;5022267;28;20452;-51
2024/03/12 00:45:35;;;;;;;0.30;0.10;;;;;;;8.11;95.71;99754.31;5034536;28;20546;-51
2024/03/12 00:48:10;;;;;;;0.30;0.20;;;;;;;8.29;95.01;99758.22;5015086;28;20449;-51
2024/03/12 00:50:37;;;;;;;0.30;0.20;;;;;;;8.26;95.76;99761.81;5014824;28;21006;-51
2024/03/12 00:53:04;;;;;;;0.30;0.20;;;;;;;8.38;94.87;99760.66;5027694;28;20542;-52
2024/03/12 00:55:31;;;;;;;0.30;0.20;;;;;;;8.18;95.20;99761.16;5034732;28;20505;-52
2024/03/12 00:57:58;;;;;;;0.30;0.20;;;;;;;8.10;95.69;99760.50;5028971;28;20529;-51
2024/03/12 01:00:28;;;;;;;0.30;0.20;;;;;;;8.06;96.52;99773.84;5016203;28;20868;-51
2024/03/12 01:02:58;;;;;;;0.30;0.20;;;;;;;8.02;96.45;99767.78;5026933;28;20494;-51
2024/03/12 01:05:26;;;;;;;5.23;4.93;;;;;;;8.08;96.88;99772.03;5028526;28;20458;-51
2024/03/12 01:08:01;;;;;;;0.30;0.20;;;;;;;8.12;96.77;99771.06;5006386;28;20483;-51
2024/03/12 01:10:32;;;;;;;0.30;0.20;;;;;;;8.07;97.08;99776.44;5034646;28;20562;-50
2024/03/12 01:13:00;;;;;;;0.30;0.20;;;;;;;8.27;97.10;99768.84;5022287;28;20547;-50
2024/03/12 01:15:28;;;;;;;0.30;0.20;;;;;;;8.18;96.99;99770.88;5010048;28;20495;-51
2024/03/12 01:17:59;;;;;;;0.30;0.20;;;;;;;8.29;96.25;99766.16;5033692;28;20456;-51
2024/03/12 01:20:26;;;;;;;0.30;0.20;;;;;;;8.32;96.54;99766.94;5030810;28;20474;-51
2024/03/12 01:22:54;;;;;;;0.30;0.20;;;;;;;8.42;96.25;99764.94;5031702;28;20533;-51
2024/03/12 01:25:22;;;;;;;0.70;0.70;;;;;;;8.53;96.08;99770.81;5033398;28;20509;-51
2024/03/12 01:27:55;;;;;;;0.30;0.20;;;;;;;8.78;96.81;99767.44;5026987;28;20561;-51
2024/03/12 01:30:26;;;;;;;0.30;0.20;;;;;;;8.90;96.50;99759.09;5015282;28;20562;-51
2024/03/12 01:32:54;;;;;;;0.30;0.20;;;;;;;8.91;96.72;99755.56;5033497;28;20956;-51
2024/03/12 01:35:21;;;;;;;0.30;0.20;;;;;;;8.93;97.01;99763.47;5021048;28;20456;-51
2024/03/12 01:37:57;;;;;;;0.30;0.20;;;;;;;9.04;97.01;99756.03;5021287;28;21016;-51
2024/03/12 01:40:27;;;;;;;0.30;0.20;;;;;;;9.00;97.18;99759.69;5027560;28;20589;-51
2024/03/12 01:43:01;;;;;;;0.30;0.20;;;;;;;9.04;97.17;99754.25;5030724;28;20495;-51
2024/03/12 01:45:30;;;;;;;0.30;0.20;;;;;;;9.11;97.34;99757.59;5033784;28;20457;-51
2024/03/12 01:47:58;;;;;;;0.30;0.20;;;;;;;9.12;97.17;99754.88;5033075;28;20949;-51
2024/03/12 01:50:27;;;;;;;0.30;0.20;;;;;;;9.23;96.97;99757.19;5032212;28;20475;-51
2024/03/12 01:52:57;;;;;;;0.30;0.20;;;;;;;9.18;97.29;99756.47;5032650;28;20534;-51
2024/03/12 01:55:24;;;;;;;0.30;0.20;;;;;;;9.24;96.87;99755.41;5033421;28;20481;-52
2024/03/12 01:57:53;;;;;;;0.30;0.20;;;;;;;9.15;97.46;99756.56;5027195;28;20462;-52
2024/03/12 02:00:20;;;;;;;0.30;0.20;;;;;;;9.22;97.42;99759.91;5023373;28;20481;-52
2024/03/12 02:02:50;;;;;;;0.30;0.20;;;;;;;9.30;97.66;99760.50;5024073;28;20977;-51
2024/03/12 02:05:17;;;;;;;0.30;0.20;;;;;;;9.29;97.15;99761.44;5024433;28;20455;-51
2024/03/12 02:07:47;;;;;;;0.30;0.20;;;;;;;9.10;97.60;99750.56;5028242;28;20491;-51
2024/03/12 02:10:14;;;;;;;0.30;0.10;;;;;;;9.22;97.14;99755.47;5033497;28;20503;-52
2024/03/12 02:12:43;;;;;;;0.30;0.20;;;;;;;9.23;97.30;99761.63;5020254;28;20987;-51
2024/03/12 02:15:12;;;;;;;0.30;0.20;;;;;;;9.18;97.12;99762.66;5032984;28;20463;-51
2024/03/12 02:17:39;;;;;;;0.30;0.20;;;;;;;9.14;97.53;99762.78;5028178;28;20453;-51
2024/03/12 02:20:11;;;;;;;0.30;0.20;;;;;;;9.16;97.93;99763.59;5027640;28;20476;-51
2024/03/12 02:22:37;;;;;;;0.30;0.20;;;;;;;9.08;97.95;99771.81;5029304;28;20494;-51
2024/03/12 02:25:09;;;;;;;0.30;0.20;;;;;;;9.14;98.17;99774.25;5032364;28;20555;-52
2024/03/12 02:27:39;;;;;;;0.30;0.20;;;;;;;9.07;98.66;99780.69;5021797;28;20449;-51
2024/03/12 02:30:10;;;;;;;0.30;0.20;;;;;;;9.34;98.51;99781.59;5020393;28;20507;-51
2024/03/12 02:32:38;;;;;;;0.30;0.20;;;;;;;9.14;98.63;99779.56;5027631;28;20444;-52
2024/03/12 02:35:10;;;;;;;0.30;0.20;;;;;;;9.07;99.04;99782.47;5033098;28;20801;-51
2024/03/12 02:37:40;;;;;;;0.30;0.20;;;;;;;9.18;98.77;99783.88;5032462;28;20578;-50
2024/03/12 02:40:14;;;;;;;0.30;0.20;;;;;;;9.15;98.80;99791.03;5030552;28;20482;-51
2024/03/12 02:42:42;;;;;;;0.30;0.20;;;;;;;9.23;98.18;99785.50;5031998;28;20542;-51
2024/03/12 02:45:15;;;;;;;0.30;0.20;;;;;;;9.25;98.21;99789.84;5032358;28;20483;-51
2024/03/12 02:47:44;;;;;;;0.30;0.20;;;;;;;9.09;98.90;99780.63;5032144;28;20849;-51
2024/03/12 02:50:13;;;;;;;0.30;0.20;;;;;;;9.20;98.86;99789.13;5030647;28;20571;-51
2024/03/12 02:52:41;;;;;;;0.30;0.20;;;;;;;9.22;98.58;99789.06;5031922;28;20467;-51
2024/03/12 02:55:08;;;;;;;0.30;0.17;;;;;;;9.15;98.93;99796.34;5016991;28;20539;-51
2024/03/12 02:57:34;;;;;;;0.30;0.20;;;;;;;9.20;98.67;99794.44;5027650;28;20458;-50
2024/03/12 03:00:02;;;;;;;0.30;0.20;;;;;;;9.20;98.78;99795.28;5019882;28;20479;-52
2024/03/12 03:02:33;;;;;;;0.30;0.20;;;;;;;9.21;98.10;99790.88;5031582;28;20958;-51
2024/03/12 03:04:59;;;;;;;0.30;0.20;;;;;;;9.33;97.87;99798.44;5031566;28;20463;-51
2024/03/12 03:07:26;;;;;;;0.30;0.20;;;;;;;9.24;97.81;99797.84;5032464;28;20448;-52
2024/03/12 03:09:53;;;;;;;0.30;0.20;;;;;;;9.22;97.69;99797.03;5029382;28;20559;-51
2024/03/12 03:12:20;;;;;;;0.30;0.20;;;;;;;9.20;97.66;99797.09;5029111;28;20510;-51
2024/03/12 03:14:46;;;;;;;0.30;0.20;;;;;;;9.12;97.83;99796.44;5026764;28;20483;-51
2024/03/12 03:17:13;;;;;;;0.30;0.20;;;;;;;9.11;97.79;99803.53;5032413;28;20861;-51
2024/03/12 03:19:39;;;;;;;0.50;0.20;;;;;;;9.04;97.98;99804.59;5031267;28;20478;-51
2024/03/12 03:22:07;;;;;;;0.30;0.20;;;;;;;8.90;97.81;99806.81;5030890;28;20571;-52
2024/03/12 03:24:36;;;;;;;0.30;0.20;;;;;;;8.73;98.35;99820.56;5031438;28;20475;-51
2024/03/12 03:27:03;;;;;;;0.30;0.20;;;;;;;8.59;98.60;99817.44;5030611;28;20459;-51
2024/03/12 03:29:31;;;;;;;0.30;0.20;;;;;;;8.51;98.66;99812.38;5028840;28;21072;-51
2024/03/12 03:32:01;;;;;;;0.30;0.20;;;;;;;8.50;98.67;99815.06;5029559;28;20458;-51
2024/03/12 03:34:28;;;;;;;0.30;0.20;;;;;;;8.39;99.02;99815.34;5031886;28;20903;-51
2024/03/12 03:37:01;;;;;;;0.30;0.20;;;;;;;8.39;99.14;99811.81;5020237;28;20483;-51
2024/03/12 03:39:28;;;;;;;0.30;0.20;;;;;;;8.38;99.88;99823.34;5024653;28;20480;-52
2024/03/12 03:41:55;;;;;;;0.30;0.20;;;;;;;8.38;99.81;99815.38;5031016;28;20929;-51
2024/03/12 03:44:22;;;;;;;0.30;0.20;;;;;;;8.31;100.00;99828.75;5025363;28;20539;-51
2024/03/12 03:46:50;;;;;;;0.30;0.20;;;;;;;8.40;99.95;99822.38;5032042;28;20444;-51
2024/03/12 03:49:16;;;;;;;0.30;0.20;;;;;;;8.39;100.00;99827.72;5031700;28;20490;-52
2024/03/12 03:51:43;;;;;;;0.30;0.20;;;;;;;8.24;100.00;99832.47;5023532;28;20451;-51
2024/03/12 03:54:09;;;;;;;0.30;0.20;;;;;;;8.07;100.00;99837.31;5015010;28;20464;-51
2024/03/12 03:56:36;;;;;;;0.30;0.20;;;;;;;8.25;100.00;99838.66;5031878;28;20483;-51
2024/03/12 03:59:03;;;;;;;0.30;0.20;;;;;;;8.24;100.00;99844.84;5025779;28;20942;-51
2024/03/12 04:01:30;;;;;;;0.30;0.20;;;;;;;8.27;100.00;99848.28;5025918;28;20490;-51
2024/03/12 04:03:57;;;;;;;0.30;0.20;;;;;;;8.46;100.00;99863.69;5021459;28;20456;-51
2024/03/12 04:06:23;;;;;;;0.30;0.20;;;;;;;8.47;100.00;99855.72;5029912;28;20463;-51
2024/03/12 04:08:53;;;;;;;0.30;0.20;;;;;;;8.46;100.00;99859.28;5030158;28;20498;-50
2024/03/12 04:11:22;;;;;;;0.30;0.20;;;;;;;8.53;100.00;99866.16;5029658;28;20456;-51
2024/03/12 04:13:54;;;;;;;0.30;0.20;;;;;;;8.53;100.00;99875.88;5029013;28;20440;-51
2024/03/12 04:16:21;;;;;;;0.30;0.20;;;;;;;8.52;100.00;99887.41;5033735;28;20447;-51
2024/03/12 04:18:48;;;;;;;0.30;0.20;;;;;;;8.54;100.00;99882.91;5035203;28;20538;-51
2024/03/12 04:21:14;;;;;;;0.30;0.20;;;;;;;8.56;100.00;99881.09;5017363;28;20454;-51
2024/03/12 04:23:42;;;;;;;0.30;0.20;;;;;;;8.61;100.00;99876.53;5034464;28;20932;-51
2024/03/12 04:26:08;;;;;;;0.30;0.20;;;;;;;8.65;100.00;99885.28;5034237;28;20466;-51
2024/03/12 04:28:38;;;;;;;0.30;0.20;;;;;;;8.68;100.00;99893.16;5035290;28;20451;-51
2024/03/12 04:31:07;;;;;;;0.30;0.20;;;;;;;8.66;100.00;99890.53;5035197;28;20468;-50
2024/03/12 04:33:37;;;;;;;0.30;0.20;;;;;;;8.68;100.00;99898.44;5035045;28;20506;-51
2024/03/12 04:36:06;;;;;;;0.30;0.20;;;;;;;8.78;100.00;99898.16;5035150;28;20953;-51
2024/03/12 04:38:33;;;;;;;0.30;0.20;;;;;;;8.72;100.00;99900.97;5035237;28;20559;-51
2024/03/12 04:41:00;;;;;;;0.30;0.20;;;;;;;8.71;100.00;99901.88;5035175;28;20464;-51
2024/03/12 04:43:27;;;;;;;0.30;0.20;;;;;;;8.71;100.00;99904.53;5035047;28;20585;-51
2024/03/12 04:45:53;;;;;;;0.30;0.20;;;;;;;8.81;100.00;99898.06;5035009;28;20447;-51
2024/03/12 04:48:21;;;;;;;0.30;0.20;;;;;;;8.92;100.00;99900.44;5035175;28;20805;-51
2024/03/12 04:50:50;;;;;;;0.30;0.20;;;;;;;9.07;100.00;99899.13;5035148;28;20478;-51
2024/03/12 04:53:17;;;;;;;0.30;0.20;;;;;;;9.14;100.00;99904.19;5035300;28;20542;-51
2024/03/12 04:55:47;;;;;;;0.30;0.20;;;;;;;9.20;100.00;99914.63;5034956;28;20450;-51
2024/03/12 04:58:14;;;;;;;0.30;0.20;;;;;;;9.26;99.91;99904.75;5034856;28;20490;-51
2024/03/12 05:00:40;;;;;;;0.30;0.20;;;;;;;9.45;99.64;99916.53;5034398;28;20495;-51
2024/03/12 05:03:07;;;;;;;0.30;0.20;;;;;;;9.39;99.27;99911.41;5034638;28;20487;-52
2024/03/12 05:05:33;;;;;;;0.30;0.20;;;;;;;9.43;99.15;99924.53;5034726;28;20522;-51
2024/03/12 05:07:59;;;;;;;0.30;0.20;;;;;;;9.35;100.00;99925.69;5034761;28;20542;-51
2024/03/12 05:10:26;;;;;;;0.30;0.20;;;;;;;9.34;99.55;99929.25;5034438;28;20507;-51
2024/03/12 05:12:53;;;;;;;0.30;0.20;;;;;;;9.20;99.21;99921.72;5034575;28;21028;-51
2024/03/12 05:15:22;;;;;;;0.30;0.20;;;;;;;9.18;100.00;99928.81;5034204;28;20444;-51
2024/03/12 05:17:49;;;;;;;0.30;0.20;;;;;;;9.14;100.00;99937.78;5034611;28;20547;-50
2024/03/12 05:20:17;;;;;;;0.30;0.20;;;;;;;9.36;99.89;99932.75;5016698;28;20498;-51
2024/03/12 05:22:44;;;;;;;0.30;0.20;;;;;;;9.34;99.44;99940.75;5034453;28;20492;-51
2024/03/12 05:25:22;;;;;;;0.30;0.20;;;;;;;9.37;100.00;99947.75;5034285;28;20456;-50
2024/03/12 05:27:49;;;;;;;0.30;0.20;;;;;;;9.44;100.00;99950.16;5033534;28;20444;-51
2024/03/12 05:30:16;;;;;;;0.30;0.20;;;;;;;9.53;99.80;99943.72;5034234;28;20559;-51
2024/03/12 05:32:47;;;;;;;0.30;0.20;;;;;;;9.55;99.14;99952.50;5034273;28;20506;-51
2024/03/12 05:35:22;;;;;;;0.30;0.20;;;;;;;9.53;99.60;99956.09;5034232;28;20479;-51
2024/03/12 05:38:03;;;;;;;0.30;0.20;;;;;;;9.54;99.63;99961.38;5034084;28;20951;-50
2024/03/12 05:48:50;;;;;;;0.30;0.20;;;;;;;9.61;98.78;99970.03;5033958;28;20901;-50
2024/03/12 05:51:20;;;;;;;0.30;0.20;;;;;;;9.67;98.55;99968.03;5033786;28;20444;-50
2024/03/12 05:53:47;;;;;;;0.30;0.20;;;;;;;9.73;98.16;99965.22;5033933;28;20444;-51
2024/03/12 05:56:14;;;;;;;0.30;0.20;;;;;;;9.72;98.63;99970.56;5033893;28;20463;-50
2024/03/12 05:58:47;;;;;;;0.30;0.20;;;;;;;9.99;97.14;99966.19;5033772;28;20455;-51
2024/03/12 06:01:14;;;;;;;0.30;0.20;;;;;;;9.97;98.08;99975.97;5034165;28;20965;-50
2024/03/12 06:03:40;;;;;;;0.30;0.20;;;;;;;9.98;97.78;99983.03;5034736;28;20495;-51
2024/03/12 06:06:07;;;;;;;0.30;0.20;;;;;;;9.80;98.28;99987.13;5034088;28;20458;-51
2024/03/12 06:08:35;;;;;;;0.30;0.20;;;;;;;9.85;98.23;99992.28;5033631;28;20448;-51
2024/03/12 06:11:01;;;;;;;0.30;0.20;;;;;;;9.87;98.80;99995.75;5033324;28;20467;-51
2024/03/12 06:13:28;;;;;;;0.40;0.40;;;;;;;9.82;98.65;100003.00;5033350;28;20448;-51
2024/03/12 06:15:54;;;;;;;0.47;0.47;;;;;;;9.73;99.25;99998.81;5033481;28;20476;-51
2024/03/12 06:18:23;;;;;;;0.30;0.20;;;;;;;9.76;98.99;99996.09;5033350;28;20458;-51
2024/03/12 06:20:50;;;;;;;0.30;0.20;;;;;;;9.74;99.12;100000.59;5020142;28;20487;-51
2024/03/12 06:23:22;;;;;;;0.30;0.20;;;;;;;9.78;99.51;99999.59;5033064;28;20495;-51
2024/03/12 06:25:49;;;;;;;0.30;0.20;;;;;;;9.78;99.27;99999.59;5033120;28;20547;-52
2024/03/12 06:28:16;;;;;;;0.30;0.20;;;;;;;9.75;99.37;100000.53;5033276;28;20480;-51
2024/03/12 06:30:43;;;;;;;0.30;0.20;;;;;;;9.79;99.36;100012.81;5033283;28;20529;-52
2024/03/12 06:33:11;;;;;;;0.30;0.20;;;;;;;9.90;99.19;100019.59;5033104;28;20476;-51
2024/03/12 06:35:40;;;;;;;0.30;0.20;;;;;;;9.80;99.42;100013.66;5033244;28;20877;-52
2024/03/12 06:38:08;;;;;;;0.30;0.20;;;;;;;9.86;99.62;100013.47;5032770;28;20458;-51
2024/03/12 06:40:34;;;;;;;0.30;0.20;;;;;;;9.89;99.64;100026.69;5032688;28;20839;-51
2024/03/12 06:43:01;;;;;;;0.30;0.20;;;;;;;9.92;99.85;100031.03;5032834;28;21011;-51
2024/03/12 06:45:27;;;;;;;0.30;0.20;;;;;;;9.94;100.00;100027.41;5033037;28;20462;-52
2024/03/12 06:48:00;;;;;;;0.30;0.20;;;;;;;10.04;100.00;100028.00;5032726;28;20501;-51
2024/03/12 06:50:26;;;;;;;0.30;0.20;;;;;;;9.85;100.00;100032.97;5032623;28;21003;-51
2024/03/12 06:52:53;;;;;;;0.30;0.20;;;;;;;9.76;100.00;100039.44;5032485;28;20443;-51
2024/03/12 06:55:26;;;;;;;0.60;0.60;;;;;;;9.94;100.00;100038.03;5032658;28;20896;-52
2024/03/12 06:57:59;;;;;;;0.30;0.20;;;;;;;9.99;100.00;100043.19;5032841;28;20447;-51
2024/03/12 07:00:32;;;;;;;0.30;0.20;;;;;;;10.02;100.00;100041.31;5032683;28;20921;-51
2024/03/12 07:02:59;;;;;;;0.30;0.20;;;;;;;10.08;99.63;100037.59;5032592;28;20498;-52
2024/03/12 07:05:29;;;;;;;0.30;0.20;;;;;;;9.95;100.00;100042.41;5032398;28;20538;-51
2024/03/12 07:07:56;;;;;;;0.30;0.20;;;;;;;10.02;100.00;100037.81;5033082;28;20536;-51
2024/03/12 07:10:25;;;;;;;0.30;0.20;;;;;;;10.14;100.00;100039.19;5014704;28;20507;-51
2024/03/12 07:12:52;;;;;;;0.40;0.33;;;;;;;10.18;100.00;100052.34;5032528;28;20538;-51
2024/03/12 07:15:19;;;;;;;0.30;0.20;;;;;;;10.26;98.73;100052.13;5032370;28;20479;-51
2024/03/12 07:17:46;;;;;;;0.87;0.87;;;;;;;10.36;99.12;100051.78;5032391;28;20447;-51
2024/03/12 07:20:15;;;;;;;0.30;0.20;;;;;;;10.28;99.05;100063.56;5032029;28;20472;-51
2024/03/12 07:22:45;;;;;;;0.40;0.20;;;;;;;10.30;99.09;100064.41;5032202;28;21077;-51
2024/03/12 07:25:13;;;;;;;0.30;0.20;;;;;;;10.38;98.09;100060.59;5032316;28;20550;-51
2024/03/12 07:27:40;;;;;;;0.30;0.20;;;;;;;10.34;98.90;100066.91;5032315;28;20466;-51
2024/03/12 07:30:11;;;;;;;0.30;0.20;;;;;;;10.34;99.05;100072.22;5032156;28;20483;-52
2024/03/12 07:32:38;;;;;;;0.70;0.70;;;;;;;10.26;99.62;100071.59;5032108;28;20447;-50
2024/03/12 07:35:05;;;;;;;0.30;0.20;;;;;;;10.28;100.00;100074.19;5032353;28;20447;-51
2024/03/12 07:37:39;;;;;;;0.30;0.20;;;;;;;10.36;99.90;100082.81;5032165;28;20483;-51
2024/03/12 07:40:11;;;;;;;0.30;0.30;;;;;;;10.39;99.77;100078.25;5031982;28;20478;-51
2024/03/12 07:42:41;;;;;;;0.30;0.20;;;;;;;10.43;99.59;100091.47;5032254;28;20452;-51
2024/03/12 07:45:11;;;;;;;0.30;0.20;;;;;;;10.43;100.00;100088.81;5018692;28;20460;-51
2024/03/12 07:47:40;;;;;;;0.30;0.20;;;;;;;10.52;99.47;100084.06;5032118;28;20546;-51
2024/03/12 07:50:08;;;;;;;0.33;0.30;;;;;;;10.37;99.57;100084.53;5031866;28;20874;-51
2024/03/12 07:52:37;;;;;;;0.30;0.20;;;;;;;10.38;99.68;100092.47;5036117;28;20448;-51
2024/03/12 07:55:05;;;;;;;0.30;0.20;;;;;;;10.48;99.62;100094.84;5036064;28;20509;-51
2024/03/12 07:57:32;;;;;;;0.30;0.20;;;;;;;10.55;99.42;100083.09;5035742;28;20983;-51
2024/03/12 07:59:59;;;;;;;0.90;0.90;;;;;;;10.62;99.30;100084.66;5035706;28;21010;-51
2024/03/12 08:02:26;;;;;;;0.30;0.20;;;;;;;10.60;98.92;100086.50;5035851;28;20505;-51
2024/03/12 08:04:52;;;;;;;0.40;0.30;;;;;;;11.06;98.29;100087.63;5035657;28;20491;-52
2024/03/12 08:07:19;;;;;;;0.30;0.20;;;;;;;10.76;97.69;100090.38;5035681;28;20941;-51
2024/03/12 08:09:49;;;;;;;2.83;2.73;;;;;;;10.81;97.53;100091.09;5035807;28;20654;-52
2024/03/12 08:12:17;;;;;;;0.30;0.20;;;;;;;11.14;97.00;100101.56;5035543;28;20444;-51
2024/03/12 08:14:44;;;;;;;0.40;0.33;;;;;;;10.88;97.21;100097.09;5035639;28;20451;-51
2024/03/12 08:17:14;;;;;;;0.30;0.20;;;;;;;10.84;96.85;100103.44;5035679;28;20452;-51
2024/03/12 08:19:43;;;;;;;0.30;0.20;;;;;;;11.13;96.61;100107.78;5035577;28;21007;-51
2024/03/12 08:22:10;;;;;;;0.30;0.20;;;;;;;11.03;96.66;100109.00;5035536;28;20483;-51
2024/03/12 08:24:37;;;;;;;0.30;0.20;;;;;;;11.26;96.23;100106.47;5035392;28;20491;-51
2024/03/12 08:27:05;;;;;;;0.30;0.20;;;;;;;11.38;95.35;100108.69;5035309;28;20538;-51
2024/03/12 08:29:31;;;;;;;0.30;0.20;;;;;;;11.49;94.39;100102.97;5035268;28;20550;-51
2024/03/12 08:31:58;;;;;;;0.30;0.20;;;;;;;11.22;95.58;100110.13;5035441;28;20542;-52
2024/03/12 08:34:26;;;;;;;0.30;0.20;;;;;;;11.49;94.17;100103.84;5035378;28;20523;-51
2024/03/12 08:36:55;;;;;;;0.30;0.20;;;;;;;11.48;94.24;100106.56;5035984;28;20458;-48
2024/03/12 08:39:22;;;;;;;0.30;0.20;;;;;;;11.35;93.83;100115.91;5034943;28;20558;-48
2024/03/12 08:41:49;;;;;;;0.30;0.20;;;;;;;11.22;94.32;100115.44;5035352;28;20458;-47
2024/03/12 08:44:15;;;;;;;0.30;0.20;;;;;;;11.46;93.07;100122.59;5035145;28;20578;-48
2024/03/12 08:46:42;;;;;;;0.30;0.20;;;;;;;11.33;93.02;100126.59;5035227;28;20447;-47
2024/03/12 08:49:10;;;;;;;0.30;0.20;;;;;;;11.35;92.76;100134.53;5034892;28;20827;-48
2024/03/12 08:51:41;;;;;;;0.30;0.20;;;;;;;11.19;92.74;100123.53;5034784;28;20453;-50
2024/03/12 08:54:11;;;;;;;0.30;0.20;;;;;;;11.21;93.07;100135.84;5035085;28;20448;-48
2024/03/12 08:56:37;;;;;;;0.30;0.20;;;;;;;11.51;92.89;100133.06;5035111;28;20447;-48
2024/03/12 08:59:08;;;;;;;0.30;0.20;;;;;;;11.43;92.01;100133.34;5034655;28;20551;-49
2024/03/12 09:01:35;;;;;;;0.30;0.20;;;;;;;11.36;92.46;100136.25;5034263;28;20494;-48
2024/03/12 09:04:02;;;;;;;0.30;0.20;;;;;;;11.36;92.24;100137.13;5033960;28;20518;-48
2024/03/12 09:06:29;;;;;;;0.30;0.20;;;;;;;11.24;92.14;100145.56;5034689;28;20456;-48
2024/03/12 09:08:56;;;;;;;0.30;0.20;;;;;;;11.13;92.20;100150.34;5034789;28;20526;-48
2024/03/12 09:11:22;;;;;;;0.30;0.20;;;;;;;11.11;92.62;100152.19;5034629;28;20454;-48
2024/03/12 09:13:50;;;;;;;0.30;0.20;;;;;;;10.95;92.52;100157.13;5034653;28;20813;-48
2024/03/12 09:16:16;;;;;;;0.30;0.20;;;;;;;11.09;92.33;100146.91;5034633;28;20983;-48
2024/03/12 09:18:43;;;;;;;0.30;0.20;;;;;;;11.06;91.62;100159.44;5034642;28;20459;-48
2024/03/12 09:21:12;;;;;;;0.30;0.20;;;;;;;11.31;91.07;100156.84;5035021;28;20468;-48
2024/03/12 09:23:39;;;;;;;0.30;0.20;;;;;;;10.99;91.70;100156.13;5034546;28;20525;-47
2024/03/12 09:26:22;;;;;;;0.30;0.20;;;;;;;11.25;90.98;100157.94;5034569;28;20529;-49
2024/03/12 09:28:49;;;;;;;0.30;0.20;;;;;;;11.17;90.65;100159.97;5034339;28;20542;-48
2024/03/12 09:31:16;;;;;;;0.30;0.20;;;;;;;11.48;90.41;100167.78;5034122;28;20816;-51
2024/03/12 09:33:44;;;;;;;0.30;0.20;;;;;;;11.39;90.57;100173.44;5021498;28;20535;-48
2024/03/12 09:36:14;;;;;;;0.30;0.20;;;;;;;11.19;91.99;100171.41;5034264;28;20454;-48
2024/03/12 09:38:41;;;;;;;0.30;0.20;;;;;;;11.07;92.06;100182.47;5034091;28;20990;-47
2024/03/12 09:41:12;;;;;;;0.30;0.20;;;;;;;11.26;92.23;100176.50;5033890;28;20488;-48
2024/03/12 09:43:39;;;;;;;0.30;0.20;;;;;;;11.40;92.16;100180.50;5034073;28;20577;-47
2024/03/12 09:46:06;;;;;;;0.30;0.20;;;;;;;11.30;92.23;100187.91;5033888;28;20797;-48
2024/03/12 09:48:34;;;;;;;0.30;0.20;;;;;;;11.28;92.43;100193.28;5034068;28;20452;-47
2024/03/12 09:51:00;;;;;;;0.30;0.20;;;;;;;11.60;92.46;100187.78;5033806;28;21053;-48
2024/03/12 09:53:27;;;;;;;0.30;0.20;;;;;;;11.52;92.17;100188.06;5033951;28;20455;-49
2024/03/12 09:55:54;;;;;;;0.30;0.20;;;;;;;11.52;91.79;100186.28;5033752;28;20546;-48
2024/03/12 09:58:21;;;;;;;0.30;0.20;;;;;;;11.61;91.63;100182.41;5033735;28;20455;-48
2024/03/12 10:00:48;;;;;;;0.30;0.20;;;;;;;11.53;91.32;100189.81;5061064;23;20498;-46
2024/03/12 10:03:18;;;;;;;0.30;0.20;;;;;;;11.88;90.34;100185.94;5053641;28;20451;-47
2024/03/12 10:05:46;;;;;;;0.30;0.20;;;;;;;11.69;90.47;100192.81;5044747;28;20464;-48
2024/03/12 10:08:17;;;;;;;0.30;0.20;;;;;;;11.97;89.81;100190.94;5063671;28;20536;-46
2024/03/12 10:10:46;;;;;;;0.30;0.20;;;;;;;11.97;89.85;100198.06;5073120;28;20538;-47
2024/03/12 10:13:15;;;;;;;0.30;0.20;;;;;;;11.85;90.02;100194.91;5072695;28;20473;-47
2024/03/12 10:15:51;;;;;;;0.30;0.20;;;;;;;11.70;89.90;100197.22;5054722;28;20512;-47
2024/03/12 10:18:19;;;;;;;0.30;0.20;;;;;;;11.68;90.35;100201.72;5065336;28;20446;-48
2024/03/12 10:20:49;;;;;;;0.30;0.20;;;;;;;11.78;89.71;100197.78;5073065;28;20552;-47
2024/03/12 10:23:18;;;;;;;0.30;0.20;;;;;;;11.82;90.40;100202.16;5071792;28;20525;-47
2024/03/12 10:25:44;;;;;;;0.30;0.20;;;;;;;11.89;89.95;100195.66;5052858;28;20987;-46
2024/03/12 10:28:19;;;;;;;0.30;0.20;;;;;;;11.81;89.58;100200.41;5068064;28;20448;-48
2024/03/12 10:30:45;;;;;;;0.30;0.20;;;;;;;11.89;89.57;100200.97;5072781;28;20843;-47
2024/03/12 10:33:16;;;;;;;0.30;0.20;;;;;;;12.00;89.24;100203.28;5072895;28;20442;-48
2024/03/12 10:35:44;;;;;;;0.30;0.20;;;;;;;12.23;88.34;100207.78;5072845;28;20453;-47
2024/03/12 10:38:27;;;;;;;0.33;0.23;;;;;;;12.09;87.05;100202.97;5045499;28;20477;-47
2024/03/12 10:40:56;;;;;;;0.30;0.20;;;;;;;12.18;86.66;100205.25;5060828;28;20524;-48
2024/03/12 10:43:24;;;;;;;0.30;0.20;;;;;;;12.25;85.82;100206.78;5065979;28;20541;-47
2024/03/12 10:45:52;;;;;;;0.30;0.20;;;;;;;12.26;86.05;100210.31;5052627;28;20490;-48
2024/03/12 10:48:18;;;;;;;0.30;0.20;;;;;;;12.12;86.82;100214.38;5052434;28;20518;-49
2024/03/12 10:50:47;;;;;;;0.30;0.20;;;;;;;12.06;86.42;100208.38;5052023;28;20467;-47
2024/03/12 10:53:14;;;;;;;0.30;0.20;;;;;;;12.24;85.87;100215.72;5047398;28;20961;-48
2024/03/12 10:55:41;;;;;;;0.30;0.20;;;;;;;11.83;85.74;100210.06;5072551;28;20462;-48
2024/03/12 10:58:11;;;;;;;0.30;0.20;;;;;;;11.75;86.26;100209.44;5057493;28;20889;-48
2024/03/12 11:00:40;;;;;;;0.30;0.20;;;;;;;11.95;86.41;100210.56;5045691;28;20470;-47
2024/03/12 11:03:11;;;;;;;0.30;0.20;;;;;;;11.99;85.89;100214.84;5040991;28;20944;-49
2024/03/12 11:05:39;;;;;;;0.30;0.20;;;;;;;12.09;87.16;100203.81;5037242;28;20503;-47
2024/03/12 11:08:09;;;;;;;0.30;0.20;;;;;;;12.15;86.31;100206.25;5032842;28;20482;-47
2024/03/12 11:10:37;;;;;;;0.30;0.20;;;;;;;12.29;85.31;100204.88;5066210;28;20461;-49
2024/03/12 11:13:07;;;;;;;0.30;0.20;;;;;;;12.25;85.76;100204.13;5062268;28;20475;-49
2024/03/12 11:15:35;;;;;;;0.30;0.20;;;;;;;12.27;84.41;100204.94;5055599;28;20430;-47
2024/03/12 11:18:02;;;;;;;0.40;0.40;;;;;;;12.42;83.92;100207.03;5072678;28;20452;-47
2024/03/12 11:20:30;;;;;;;0.30;0.20;;;;;;;12.39;83.19;100204.50;5072194;28;20881;-47
2024/03/12 11:23:00;;;;;;;0.30;0.20;;;;;;;12.30;82.66;100210.16;5049257;28;20451;-47
2024/03/12 11:25:43;;;;;;;0.30;0.20;;;;;;;12.29;82.34;100205.75;5031891;28;20487;-47
2024/03/12 11:28:25;;;;;;;0.30;0.20;;;;;;;12.34;82.66;100213.59;5032592;28;20435;-47
2024/03/12 11:30:55;;;;;;;0.30;0.20;;;;;;;12.26;82.58;100210.31;5052434;28;20473;-47
2024/03/12 11:33:52;;;;;;;0.30;0.20;;;;;;;12.26;82.92;100211.19;5072306;28;20464;-47
2024/03/12 11:36:32;;;;;;;0.30;0.20;;;;;;;12.32;82.81;100215.41;5056151;28;20489;-48
2024/03/12 11:39:11;;;;;;;0.30;0.20;;;;;;;12.46;82.46;100213.09;5052192;28;20509;-48
2024/03/12 11:42:10;;;;;;;0.30;0.20;;;;;;;12.56;82.36;100209.19;5052485;28;20427;-47
2024/03/12 11:44:48;;;;;;;0.30;0.20;;;;;;;12.34;82.49;100214.47;5052292;28;20540;-47
2024/03/12 11:47:36;;;;;;;0.30;0.20;;;;;;;12.39;82.22;100216.94;5063544;28;20460;-47
2024/03/12 11:50:07;;;;;;;0.30;0.20;;;;;;;12.41;80.89;100220.41;5032181;28;20463;-47